Time;durP1;ratioP1;P1;durP2;ratioP2;P2;SDS_P1;SDS_P2;PMS_P1;PMS_P2;Temp;Humidity;BMP_temperature;BMP_pressure;BME280_temperature;BME280_humidity;BME280_pressure;Samples;Min_cycle;Max_cycle;Signal;HPM_P1;HPM_P2
2021/09/12 00:00:17;;;;;;;876.13;814.10;;;;;;;;;;5017322;28;20461;-84
2021/09/12 00:02:44;;;;;;;897.70;828.37;;;;;;;;;;5032471;28;20494;-84
2021/09/12 00:05:11;;;;;;;1023.23;943.70;;;;;;;;;;5035850;28;20498;-84
2021/09/12 00:07:38;;;;;;;968.13;890.83;;;;;;;;;;5035646;28;20447;-84
2021/09/12 00:10:06;;;;;;;932.43;858.63;;;;;;;;;;5037580;28;20461;-84
2021/09/12 00:12:33;;;;;;;580.47;527.10;;;;;;;;;;5036604;28;20454;-84
2021/09/12 00:15:01;;;;;;;816.70;751.53;;;;;;;;;;5037265;28;20531;-83
2021/09/12 00:17:29;;;;;;;1030.37;947.70;;;;;;;;;;5035601;28;20449;-84
2021/09/12 00:19:56;;;;;;;1027.40;947.83;;;;;;;;;;5032193;28;20453;-84
2021/09/12 00:22:23;;;;;;;613.10;560.30;;;;;;;;;;5036173;28;20492;-84
2021/09/12 00:24:50;;;;;;;775.70;712.03;;;;;;;;;;5035960;28;20562;-83
2021/09/12 00:27:17;;;;;;;835.13;769.97;;;;;;;;;;5035882;28;20455;-84
2021/09/12 00:29:44;;;;;;;816.63;748.90;;;;;;;;;;5036168;28;20983;-84
2021/09/12 00:32:12;;;;;;;733.33;674.90;;;;;;;;;;5043928;28;20445;-84
2021/09/12 00:34:40;;;;;;;1999.90;999.90;;;;;;;;;;5037022;28;20849;-84
2021/09/12 00:37:07;;;;;;;1999.90;999.90;;;;;;;;;;5036087;28;20456;-83
2021/09/12 00:39:35;;;;;;;1376.70;986.13;;;;;;;;;;5036544;28;20541;-83
2021/09/12 00:42:02;;;;;;;924.07;847.43;;;;;;;;;;5032445;28;21020;-83
2021/09/12 00:44:29;;;;;;;1554.70;870.00;;;;;;;;;;5016496;28;20475;-83
2021/09/12 00:46:57;;;;;;;982.03;903.83;;;;;;;;;;5013976;28;20469;-83
2021/09/12 00:49:24;;;;;;;618.47;565.87;;;;;;;;;;5014215;28;20543;-83
2021/09/12 00:51:53;;;;;;;739.53;680.70;;;;;;;;;;5015278;28;20445;-83
2021/09/12 00:54:20;;;;;;;1600.93;911.53;;;;;;;;;;5033422;28;20460;-83
2021/09/12 00:56:48;;;;;;;1052.70;683.57;;;;;;;;;;5032966;28;20448;-83
2021/09/12 00:59:16;;;;;;;692.33;631.57;;;;;;;;;;5033499;28;20463;-84
2021/09/12 01:01:43;;;;;;;1527.50;842.93;;;;;;;;;;5033371;28;20449;-83
2021/09/12 01:04:10;;;;;;;916.07;840.37;;;;;;;;;;5013970;28;20469;-83
2021/09/12 01:06:37;;;;;;;1577.43;890.60;;;;;;;;;;5013125;28;20459;-85
2021/09/12 01:09:06;;;;;;;967.90;890.43;;;;;;;;;;5032964;28;20953;-85
2021/09/12 01:11:33;;;;;;;798.83;730.47;;;;;;;;;;5033256;28;20456;-85
2021/09/12 01:14:00;;;;;;;910.67;837.03;;;;;;;;;;5014017;28;20466;-84
2021/09/12 01:16:27;;;;;;;568.20;519.57;;;;;;;;;;5013056;28;20458;-85
2021/09/12 01:18:55;;;;;;;804.90;738.30;;;;;;;;;;5014203;28;20807;-85
2021/09/12 01:21:23;;;;;;;1449.57;770.87;;;;;;;;;;5013756;28;20984;-85
2021/09/12 01:23:51;;;;;;;623.50;567.60;;;;;;;;;;5035322;28;20485;-85
2021/09/12 01:26:22;;;;;;;1598.37;909.03;;;;;;;;;;5035914;28;20445;-84
2021/09/12 01:28:49;;;;;;;514.17;470.80;;;;;;;;;;5036293;28;20451;-85
2021/09/12 01:31:23;;;;;;;1601.63;912.17;;;;;;;;;;5042138;28;20456;-85
2021/09/12 01:33:50;;;;;;;1016.07;934.70;;;;;;;;;;5036985;28;20479;-85
2021/09/12 01:36:18;;;;;;;1999.90;999.90;;;;;;;;;;5034734;28;20459;-83
2021/09/12 01:38:46;;;;;;;1387.13;695.00;;;;;;;;;;5033864;28;20463;-84
2021/09/12 01:41:13;;;;;;;785.27;719.17;;;;;;;;;;5027351;28;20483;-85
2021/09/12 01:43:47;;;;;;;1549.43;863.67;;;;;;;;;;5030868;28;20591;-85
2021/09/12 01:46:14;;;;;;;1999.90;999.90;;;;;;;;;;5025085;28;20486;-84
2021/09/12 01:48:41;;;;;;;1999.90;999.90;;;;;;;;;;5032945;28;20980;-84
2021/09/12 01:51:08;;;;;;;1999.90;999.90;;;;;;;;;;5033392;28;20456;-84
2021/09/12 01:53:36;;;;;;;1490.23;808.13;;;;;;;;;;5032031;28;20834;-85
2021/09/12 01:56:03;;;;;;;1999.90;999.90;;;;;;;;;;5032336;28;20445;-84
2021/09/12 01:58:30;;;;;;;1445.30;766.17;;;;;;;;;;5033881;28;20449;-85
2021/09/12 02:00:58;;;;;;;1999.90;999.90;;;;;;;;;;5032440;28;20463;-84
2021/09/12 02:03:26;;;;;;;1999.90;999.90;;;;;;;;;;5021687;28;20493;-85
2021/09/12 02:05:53;;;;;;;1999.90;999.90;;;;;;;;;;5030409;28;20459;-85
2021/09/12 02:08:20;;;;;;;1999.90;999.90;;;;;;;;;;5031570;28;20522;-85
2021/09/12 02:10:48;;;;;;;1999.90;999.90;;;;;;;;;;5032164;28;20467;-84
2021/09/12 02:13:15;;;;;;;811.10;446.63;;;;;;;;;;5031294;28;20840;-84
2021/09/12 02:15:42;;;;;;;1999.90;999.90;;;;;;;;;;5032254;28;20468;-85
2021/09/12 02:18:11;;;;;;;1999.90;999.90;;;;;;;;;;5031875;28;20459;-84
2021/09/12 02:20:38;;;;;;;1999.90;999.90;;;;;;;;;;5036009;28;20470;-84
2021/09/12 02:23:05;;;;;;;1999.90;999.90;;;;;;;;;;5026946;28;21002;-84
2021/09/12 02:25:34;;;;;;;1999.90;999.90;;;;;;;;;;5016460;28;20482;-85
2021/09/12 02:28:01;;;;;;;1999.90;999.90;;;;;;;;;;5015691;28;20459;-84
2021/09/12 02:30:28;;;;;;;1999.90;999.90;;;;;;;;;;5016625;28;20445;-83
2021/09/12 02:32:55;;;;;;;1999.90;999.90;;;;;;;;;;5024287;28;20951;-84
2021/09/12 02:35:24;;;;;;;1999.90;999.90;;;;;;;;;;5043717;28;20837;-84
2021/09/12 02:37:51;;;;;;;1999.90;999.90;;;;;;;;;;5055001;28;20458;-85
2021/09/12 02:40:19;;;;;;;1999.90;999.90;;;;;;;;;;5055540;28;20461;-84
2021/09/12 02:42:47;;;;;;;1999.90;999.90;;;;;;;;;;5047991;28;20484;-84
2021/09/12 02:45:14;;;;;;;1999.90;999.90;;;;;;;;;;5035547;28;20466;-84
2021/09/12 02:47:41;;;;;;;1999.90;999.90;;;;;;;;;;5034208;28;20455;-84
2021/09/12 02:50:09;;;;;;;1999.90;999.90;;;;;;;;;;5035160;28;20945;-84
2021/09/12 02:52:37;;;;;;;1999.90;999.90;;;;;;;;;;5029972;28;20456;-84
2021/09/12 02:55:05;;;;;;;1999.90;999.90;;;;;;;;;;5014757;28;20473;-84
2021/09/12 02:57:32;;;;;;;1999.90;999.90;;;;;;;;;;5014923;28;20465;-84
2021/09/12 02:59:59;;;;;;;1999.90;999.90;;;;;;;;;;5020173;28;20453;-85
2021/09/12 03:02:26;;;;;;;1999.90;999.90;;;;;;;;;;5023753;28;20476;-85
2021/09/12 03:04:54;;;;;;;1999.90;999.90;;;;;;;;;;5039721;28;20470;-84
2021/09/12 03:07:21;;;;;;;1999.90;999.90;;;;;;;;;;5037705;28;20455;-84
2021/09/12 03:09:49;;;;;;;1999.90;999.90;;;;;;;;;;5038319;28;20448;-85
2021/09/12 03:12:16;;;;;;;1999.90;999.90;;;;;;;;;;5036359;28;20457;-85
2021/09/12 03:14:43;;;;;;;1999.90;999.90;;;;;;;;;;5018936;28;20480;-85
2021/09/12 03:17:11;;;;;;;1999.90;999.90;;;;;;;;;;5017894;28;20468;-85
2021/09/12 03:19:38;;;;;;;1999.90;999.90;;;;;;;;;;5039333;28;20454;-85
2021/09/12 03:22:05;;;;;;;1999.90;999.90;;;;;;;;;;5039179;28;21018;-86
2021/09/12 03:24:33;;;;;;;1999.90;999.90;;;;;;;;;;5019185;28;20508;-84
2021/09/12 03:27:01;;;;;;;1999.90;999.90;;;;;;;;;;5017847;28;20456;-84
2021/09/12 03:29:29;;;;;;;1999.90;999.90;;;;;;;;;;5018901;28;20458;-85
2021/09/12 03:31:56;;;;;;;1999.90;999.90;;;;;;;;;;5019672;28;20453;-85
2021/09/12 03:34:24;;;;;;;1999.90;999.90;;;;;;;;;;5018777;28;20475;-85
2021/09/12 03:36:51;;;;;;;716.83;658.57;;;;;;;;;;5056989;28;20941;-85
2021/09/12 03:39:18;;;;;;;1999.90;999.90;;;;;;;;;;5057757;28;21048;-84
2021/09/12 03:41:45;;;;;;;1999.90;999.90;;;;;;;;;;5057861;28;20459;-84
2021/09/12 03:44:14;;;;;;;1999.90;999.90;;;;;;;;;;5040071;28;20498;-85
2021/09/12 03:46:41;;;;;;;1999.90;999.90;;;;;;;;;;5037572;28;20458;-86
2021/09/12 03:49:08;;;;;;;1999.90;999.90;;;;;;;;;;5038304;28;20452;-86
2021/09/12 03:51:35;;;;;;;1999.90;999.90;;;;;;;;;;5038220;28;20824;-84
2021/09/12 03:54:03;;;;;;;1999.90;999.90;;;;;;;;;;5022723;28;20473;-84
2021/09/12 03:56:30;;;;;;;1999.90;999.90;;;;;;;;;;5017814;28;20453;-85
2021/09/12 03:58:57;;;;;;;1999.90;999.90;;;;;;;;;;5018116;28;20456;-85
2021/09/12 04:01:25;;;;;;;1999.90;999.90;;;;;;;;;;5019224;28;20468;-85
2021/09/12 04:03:52;;;;;;;1999.90;999.90;;;;;;;;;;5031631;28;20495;-86
2021/09/12 04:06:19;;;;;;;1999.90;999.90;;;;;;;;;;5037588;28;20462;-85
2021/09/12 04:08:46;;;;;;;1999.90;999.90;;;;;;;;;;5037530;28;20531;-84
2021/09/12 04:11:14;;;;;;;1999.90;999.90;;;;;;;;;;5037806;28;20451;-85
2021/09/12 04:13:41;;;;;;;1999.90;999.90;;;;;;;;;;5025523;28;20474;-84
2021/09/12 04:16:09;;;;;;;1999.90;999.90;;;;;;;;;;5017232;28;20461;-83
2021/09/12 04:18:38;;;;;;;1999.90;999.90;;;;;;;;;;5017275;28;20490;-84
2021/09/12 04:21:05;;;;;;;1999.90;999.90;;;;;;;;;;5017149;28;20459;-84
2021/09/12 04:23:32;;;;;;;1446.00;767.47;;;;;;;;;;5026958;28;20483;-85
2021/09/12 04:25:59;;;;;;;1999.90;999.90;;;;;;;;;;5036722;28;20446;-85
2021/09/12 04:28:27;;;;;;;1999.90;999.90;;;;;;;;;;5036289;28;20454;-84
2021/09/12 04:30:55;;;;;;;1999.90;999.90;;;;;;;;;;5036686;28;20459;-86
2021/09/12 04:33:22;;;;;;;1999.90;999.90;;;;;;;;;;5028570;28;20509;-85
2021/09/12 04:35:51;;;;;;;1999.90;999.90;;;;;;;;;;5042524;22;20554;-88
2021/09/12 04:38:18;;;;;;;1999.90;999.90;;;;;;;;;;5031545;28;20451;-88
2021/09/12 04:40:46;;;;;;;1445.30;767.77;;;;;;;;;;5031815;28;20466;-88
2021/09/12 04:43:13;;;;;;;1999.90;999.90;;;;;;;;;;5032379;28;20489;-88
2021/09/12 04:45:40;;;;;;;1999.90;999.90;;;;;;;;;;5017720;28;20486;-89
2021/09/12 04:48:07;;;;;;;1999.90;999.90;;;;;;;;;;4997886;28;20457;-88
2021/09/12 04:50:35;;;;;;;1999.90;999.90;;;;;;;;;;4993590;28;20457;-89
2021/09/12 04:53:03;;;;;;;1999.90;999.90;;;;;;;;;;5000056;28;20836;-88
2021/09/12 04:55:30;;;;;;;1999.90;999.90;;;;;;;;;;5023758;28;20452;-88
2021/09/12 04:57:57;;;;;;;1999.90;999.90;;;;;;;;;;5001548;28;20465;-88
2021/09/12 05:00:25;;;;;;;1999.90;999.90;;;;;;;;;;4992784;28;20452;-88
2021/09/12 05:02:52;;;;;;;1999.90;999.90;;;;;;;;;;4992771;28;20457;-88
2021/09/12 05:05:20;;;;;;;1999.90;999.90;;;;;;;;;;4999935;28;20953;-86
2021/09/12 05:07:47;;;;;;;1999.90;999.90;;;;;;;;;;5012228;28;20482;-86
2021/09/12 05:10:15;;;;;;;1999.90;999.90;;;;;;;;;;5012785;28;20467;-86
2021/09/12 05:12:42;;;;;;;1999.90;999.90;;;;;;;;;;5012587;28;20470;-86
2021/09/12 05:15:10;;;;;;;1999.90;999.90;;;;;;;;;;5007102;28;20475;-86
2021/09/12 05:17:37;;;;;;;1999.90;999.90;;;;;;;;;;4992299;28;20853;-86
2021/09/12 05:20:04;;;;;;;1999.90;999.90;;;;;;;;;;4993708;28;20456;-86
2021/09/12 05:22:31;;;;;;;1999.90;999.90;;;;;;;;;;4994053;28;20455;-87
2021/09/12 05:24:59;;;;;;;1999.90;999.90;;;;;;;;;;4993457;28;20498;-86
2021/09/12 05:27:27;;;;;;;1999.90;999.90;;;;;;;;;;4993508;28;20456;-86
2021/09/12 05:29:54;;;;;;;1999.90;999.90;;;;;;;;;;4995521;28;20446;-86
2021/09/12 05:32:21;;;;;;;1999.90;999.90;;;;;;;;;;5005259;28;20450;-86
2021/09/12 05:34:48;;;;;;;1999.90;999.90;;;;;;;;;;5013502;28;20485;-87
2021/09/12 05:37:16;;;;;;;1999.90;999.90;;;;;;;;;;5012032;28;20840;-86
2021/09/12 05:39:43;;;;;;;1999.90;999.90;;;;;;;;;;5012765;28;20481;-86
2021/09/12 05:42:10;;;;;;;1999.90;999.90;;;;;;;;;;5012629;28;20458;-86
2021/09/12 05:44:39;;;;;;;1999.90;999.90;;;;;;;;;;5012214;28;20593;-86
2021/09/12 05:47:06;;;;;;;1999.90;999.90;;;;;;;;;;5015701;28;20456;-86
2021/09/12 05:49:33;;;;;;;1999.90;999.90;;;;;;;;;;5017835;28;20485;-87
2021/09/12 05:52:01;;;;;;;1999.90;999.90;;;;;;;;;;5016176;28;20953;-88
2021/09/12 05:54:28;;;;;;;1999.90;999.90;;;;;;;;;;5016400;28;20556;-88
2021/09/12 05:56:55;;;;;;;1999.90;999.90;;;;;;;;;;5015379;28;20945;-88
2021/09/12 05:59:22;;;;;;;1999.90;999.90;;;;;;;;;;5016488;28;20468;-86
2021/09/12 06:01:50;;;;;;;1999.90;999.90;;;;;;;;;;5016671;28;20457;-87
2021/09/12 06:04:18;;;;;;;1999.90;999.90;;;;;;;;;;5016254;28;20502;-88
2021/09/12 06:06:45;;;;;;;1999.90;999.90;;;;;;;;;;5015005;28;21150;-87
2021/09/12 06:09:12;;;;;;;1999.90;999.90;;;;;;;;;;5006602;28;20459;-88
2021/09/12 06:11:39;;;;;;;1999.90;999.90;;;;;;;;;;5004057;28;20535;-88
2021/09/12 06:14:06;;;;;;;1999.90;999.90;;;;;;;;;;5004581;28;20896;-88
2021/09/12 06:16:33;;;;;;;1999.90;999.90;;;;;;;;;;5004824;28;20461;-88
2021/09/12 06:19:02;;;;;;;1999.90;999.90;;;;;;;;;;4996537;28;20461;-88
2021/09/12 06:21:29;;;;;;;1999.90;999.90;;;;;;;;;;5012984;28;20546;-88
2021/09/12 06:23:56;;;;;;;1999.90;999.90;;;;;;;;;;5015116;28;20506;-87
2021/09/12 06:26:23;;;;;;;1999.90;999.90;;;;;;;;;;5000205;28;20509;-88
2021/09/12 06:28:50;;;;;;;1999.90;999.90;;;;;;;;;;4996196;28;20528;-87
2021/09/12 06:31:18;;;;;;;1999.90;999.90;;;;;;;;;;5013052;28;20470;-88
2021/09/12 06:33:45;;;;;;;1999.90;999.90;;;;;;;;;;5012550;28;20445;-88
2021/09/12 06:36:13;;;;;;;1999.90;999.90;;;;;;;;;;5005065;28;20462;-89
2021/09/12 06:38:41;;;;;;;1999.90;999.90;;;;;;;;;;4998602;28;20467;-88
2021/09/12 06:41:08;;;;;;;1999.90;999.90;;;;;;;;;;5013183;28;20450;-88
2021/09/12 06:43:35;;;;;;;1999.90;999.90;;;;;;;;;;5015205;28;20455;-88
2021/09/12 06:46:02;;;;;;;1999.90;999.90;;;;;;;;;;5008576;28;20555;-87
2021/09/12 06:48:29;;;;;;;1999.90;999.90;;;;;;;;;;5004781;28;20485;-88
2021/09/12 06:50:57;;;;;;;1999.90;999.90;;;;;;;;;;5019056;28;20419;-88
2021/09/12 06:53:26;;;;;;;1999.90;999.90;;;;;;;;;;5020451;28;20451;-87
2021/09/12 06:55:53;;;;;;;1999.90;999.90;;;;;;;;;;4995123;28;20471;-88
2021/09/12 06:58:20;;;;;;;1999.90;999.90;;;;;;;;;;5002517;28;20451;-88
2021/09/12 07:00:47;;;;;;;1999.90;999.90;;;;;;;;;;5014819;28;20478;-87
2021/09/12 07:03:14;;;;;;;1999.90;999.90;;;;;;;;;;5012704;28;20987;-87
2021/09/12 07:05:42;;;;;;;1999.90;999.90;;;;;;;;;;5018262;28;20488;-88
2021/09/12 07:08:09;;;;;;;1999.90;999.90;;;;;;;;;;5014201;28;20453;-88
2021/09/12 07:10:37;;;;;;;1999.90;999.90;;;;;;;;;;5014242;28;20540;-88
2021/09/12 07:13:05;;;;;;;1999.90;999.90;;;;;;;;;;5000376;28;20461;-88
2021/09/12 07:15:32;;;;;;;1999.90;999.90;;;;;;;;;;5002290;28;20460;-86
2021/09/12 07:17:59;;;;;;;1999.90;999.90;;;;;;;;;;5002332;28;20534;-88
2021/09/12 07:20:26;;;;;;;1999.90;999.90;;;;;;;;;;5004512;28;20451;-87
2021/09/12 07:22:53;;;;;;;1999.90;999.90;;;;;;;;;;5002364;28;20444;-88
2021/09/12 07:25:21;;;;;;;1999.90;999.90;;;;;;;;;;5003496;28;20495;-88
2021/09/12 07:27:49;;;;;;;1999.90;999.90;;;;;;;;;;5007128;28;20449;-89
2021/09/12 07:30:16;;;;;;;1999.90;999.90;;;;;;;;;;5006288;28;20462;-89
2021/09/12 07:32:44;;;;;;;1999.90;999.90;;;;;;;;;;5015051;28;20452;-89
2021/09/12 07:35:11;;;;;;;1999.90;999.90;;;;;;;;;;5013104;28;20480;-89
2021/09/12 07:37:39;;;;;;;1999.90;999.90;;;;;;;;;;5009637;28;20473;-90
2021/09/12 07:40:06;;;;;;;1999.90;999.90;;;;;;;;;;4999643;28;20540;-89
2021/09/12 07:42:34;;;;;;;1999.90;999.90;;;;;;;;;;4994571;28;20435;-89
2021/09/12 07:45:04;;;;;;;1999.90;999.90;;;;;;;;;;5010130;28;20488;-89
2021/09/12 07:47:33;;;;;;;1999.90;999.90;;;;;;;;;;4994090;28;20492;-91
2021/09/12 07:50:00;;;;;;;1999.90;999.90;;;;;;;;;;5008751;28;20465;-89
2021/09/12 07:52:27;;;;;;;1999.90;999.90;;;;;;;;;;5014170;28;20467;-90
2021/09/12 07:54:54;;;;;;;1999.90;999.90;;;;;;;;;;5013045;28;20533;-90
2021/09/12 07:57:22;;;;;;;1999.90;999.90;;;;;;;;;;5014965;28;20905;-90
2021/09/12 07:59:49;;;;;;;1999.90;999.90;;;;;;;;;;5014307;28;21049;-90
2021/09/12 08:02:19;;;;;;;1999.90;999.90;;;;;;;;;;5013610;28;20942;-90
2021/09/12 08:04:55;;;;;;;1999.90;999.90;;;;;;;;;;5006782;28;21040;-90
2021/09/12 08:07:23;;;;;;;1999.90;999.90;;;;;;;;;;5011396;28;20808;-90
2021/09/12 08:09:50;;;;;;;1999.90;999.90;;;;;;;;;;5014497;28;20457;-90
2021/09/12 08:12:18;;;;;;;1999.90;999.90;;;;;;;;;;5014229;28;21213;-89
2021/09/12 08:14:50;;;;;;;1999.90;999.90;;;;;;;;;;5012542;28;20878;-89
2021/09/12 08:17:20;;;;;;;1999.90;999.90;;;;;;;;;;4998795;28;20445;-88
2021/09/12 08:19:48;;;;;;;1999.90;999.90;;;;;;;;;;5005402;28;20546;-86
2021/09/12 08:22:15;;;;;;;1999.90;999.90;;;;;;;;;;5013270;28;20525;-87
2021/09/12 08:24:44;;;;;;;1999.90;999.90;;;;;;;;;;5000221;28;20850;-90
2021/09/12 08:27:11;;;;;;;1999.90;999.90;;;;;;;;;;4999831;28;20462;-89
2021/09/12 08:29:39;;;;;;;1999.90;999.90;;;;;;;;;;5008469;28;20540;-90
2021/09/12 08:32:06;;;;;;;1999.90;999.90;;;;;;;;;;5013110;28;20453;-87
2021/09/12 08:34:35;;;;;;;1999.90;999.90;;;;;;;;;;5012864;28;20482;-88
2021/09/12 08:37:02;;;;;;;1999.90;999.90;;;;;;;;;;5015347;28;20802;-90
2021/09/12 08:42:20;;;;;;;1999.90;999.90;;;;;;;;;;5001081;28;20815;-88
2021/09/12 08:44:48;;;;;;;1999.90;999.90;;;;;;;;;;5007149;28;21052;-90
2021/09/12 08:47:19;;;;;;;1999.90;999.90;;;;;;;;;;5029082;28;20502;-90
2021/09/12 08:49:53;;;;;;;1999.90;999.90;;;;;;;;;;5003488;28;20901;-88
2021/09/12 08:52:20;;;;;;;1999.90;999.90;;;;;;;;;;5013723;28;20512;-90
2021/09/12 08:54:48;;;;;;;1999.90;999.90;;;;;;;;;;5000627;28;21003;-89
2021/09/12 08:57:19;;;;;;;1999.90;999.90;;;;;;;;;;4993027;28;20463;-90
2021/09/12 08:59:49;;;;;;;1999.90;999.90;;;;;;;;;;4993948;28;20472;-88
2021/09/12 09:02:28;;;;;;;1999.90;999.90;;;;;;;;;;5012033;28;20469;-88
2021/09/12 09:05:03;;;;;;;1999.90;999.90;;;;;;;;;;4989309;28;20565;-88
2021/09/12 09:07:41;;;;;;;1999.90;999.90;;;;;;;;;;4992655;28;20461;-90
2021/09/12 09:10:21;;;;;;;1999.90;999.90;;;;;;;;;;5004282;28;21359;-90
2021/09/12 09:12:50;;;;;;;1999.90;999.90;;;;;;;;;;4999240;28;20457;-88
2021/09/12 09:15:20;;;;;;;1999.90;999.90;;;;;;;;;;5011929;28;20495;-89
2021/09/12 09:17:48;;;;;;;1999.90;999.90;;;;;;;;;;5004446;28;20454;-89
2021/09/12 09:20:20;;;;;;;1999.90;999.90;;;;;;;;;;5013161;28;20869;-86
2021/09/12 09:22:48;;;;;;;1999.90;999.90;;;;;;;;;;5012150;28;21249;-87
2021/09/12 09:25:18;;;;;;;1999.90;999.90;;;;;;;;;;5022669;28;20494;-86
2021/09/12 09:28:00;;;;;;;1999.90;999.90;;;;;;;;;;5023327;28;20466;-84
2021/09/12 09:30:28;;;;;;;1999.90;999.90;;;;;;;;;;5016252;28;20512;-86
2021/09/12 09:33:14;;;;;;;1999.90;999.90;;;;;;;;;;5018014;28;20546;-87
2021/09/12 09:35:50;;;;;;;1999.90;999.90;;;;;;;;;;5016213;28;20513;-86
2021/09/12 09:38:17;;;;;;;1999.90;999.90;;;;;;;;;;5015037;28;20918;-86
2021/09/12 09:40:56;;;;;;;1999.90;999.90;;;;;;;;;;5013755;28;20460;-85
2021/09/12 09:43:36;;;;;;;1999.90;999.90;;;;;;;;;;5012868;28;20548;-86
2021/09/12 09:46:04;;;;;;;1999.90;999.90;;;;;;;;;;5003478;28;20485;-86
2021/09/12 09:48:34;;;;;;;1999.90;999.90;;;;;;;;;;5012055;28;20478;-86
2021/09/12 09:51:04;;;;;;;1999.90;999.90;;;;;;;;;;5011751;28;20537;-86
2021/09/12 09:53:35;;;;;;;1999.90;999.90;;;;;;;;;;5008792;28;20804;-86
2021/09/12 09:56:03;;;;;;;1999.90;999.90;;;;;;;;;;5012243;28;20291;-86
2021/09/12 09:58:32;;;;;;;1999.90;999.90;;;;;;;;;;5011291;28;20473;-86
2021/09/12 10:00:59;;;;;;;1999.90;999.90;;;;;;;;;;5012377;28;20460;-86
2021/09/12 10:03:26;;;;;;;1999.90;999.90;;;;;;;;;;5012245;28;20639;-86
2021/09/12 10:05:54;;;;;;;1999.90;999.90;;;;;;;;;;5004289;28;20491;-86
2021/09/12 10:08:22;;;;;;;1999.90;999.90;;;;;;;;;;5009932;28;20469;-87
2021/09/12 10:10:50;;;;;;;1999.90;999.90;;;;;;;;;;5012416;28;20450;-86
2021/09/12 10:13:18;;;;;;;1999.90;999.90;;;;;;;;;;5012882;28;20461;-86
2021/09/12 10:15:49;;;;;;;1999.90;999.90;;;;;;;;;;5013279;28;20474;-85
2021/09/12 10:18:16;;;;;;;1999.90;999.90;;;;;;;;;;5012354;28;20464;-85
2021/09/12 10:20:43;;;;;;;1999.90;999.90;;;;;;;;;;5010081;28;20450;-87
2021/09/12 10:23:12;;;;;;;1999.90;999.90;;;;;;;;;;5002302;28;20453;-85
2021/09/12 10:25:54;;;;;;;1999.90;999.90;;;;;;;;;;5009363;28;20500;-85
2021/09/12 10:28:28;;;;;;;1999.90;999.90;;;;;;;;;;5010680;28;20468;-86
2021/09/12 10:30:56;;;;;;;1999.90;999.90;;;;;;;;;;5004736;28;20549;-86
2021/09/12 10:33:25;;;;;;;1999.90;999.90;;;;;;;;;;5011750;28;20457;-85
2021/09/12 10:35:53;;;;;;;1999.90;999.90;;;;;;;;;;5025433;22;20489;-82
2021/09/12 10:38:29;;;;;;;1999.90;999.90;;;;;;;;;;5011591;28;20449;-80
2021/09/12 10:41:19;;;;;;;1999.90;999.90;;;;;;;;;;5009815;28;20471;-81
2021/09/12 10:43:47;;;;;;;1999.90;999.90;;;;;;;;;;5011630;28;20966;-81
2021/09/12 10:46:23;;;;;;;1999.90;999.90;;;;;;;;;;5012168;28;20489;-81
2021/09/12 10:49:03;;;;;;;1999.90;999.90;;;;;;;;;;5016019;28;20453;-82
2021/09/12 10:51:32;;;;;;;1999.90;999.90;;;;;;;;;;5009575;28;20461;-83
2021/09/12 10:54:00;;;;;;;1999.90;999.90;;;;;;;;;;5016178;28;20457;-82
2021/09/12 10:56:30;;;;;;;1999.90;999.90;;;;;;;;;;5015052;28;21022;-83
2021/09/12 10:59:00;;;;;;;1999.90;999.90;;;;;;;;;;5014044;28;20449;-80
2021/09/12 11:01:28;;;;;;;1999.90;999.90;;;;;;;;;;5016665;28;21094;-81
2021/09/12 11:03:58;;;;;;;1999.90;999.90;;;;;;;;;;5015627;28;20489;-82
2021/09/12 11:06:25;;;;;;;1999.90;999.90;;;;;;;;;;5014399;28;20543;-82
2021/09/12 11:08:52;;;;;;;1999.90;999.90;;;;;;;;;;5015566;28;20466;-82
2021/09/12 11:11:19;;;;;;;1999.90;999.90;;;;;;;;;;5015749;28;20458;-83
2021/09/12 11:13:48;;;;;;;1999.90;999.90;;;;;;;;;;5015540;28;20450;-82
2021/09/12 11:16:16;;;;;;;1999.90;999.90;;;;;;;;;;5014908;28;20476;-82
2021/09/12 11:18:47;;;;;;;1999.90;999.90;;;;;;;;;;5015758;28;20458;-82
2021/09/12 11:21:24;;;;;;;1999.90;999.90;;;;;;;;;;5016050;28;21076;-82
2021/09/12 11:23:56;;;;;;;1999.90;999.90;;;;;;;;;;5016227;28;20453;-82
2021/09/12 11:26:23;;;;;;;1999.90;999.90;;;;;;;;;;5020164;28;20483;-81
2021/09/12 11:29:01;;;;;;;1999.90;999.90;;;;;;;;;;5020513;28;20446;-82
2021/09/12 11:31:29;;;;;;;1999.90;999.90;;;;;;;;;;5025579;28;20531;-82
2021/09/12 11:33:56;;;;;;;1999.90;999.90;;;;;;;;;;5020214;28;20976;-82
2021/09/12 11:36:23;;;;;;;1999.90;999.90;;;;;;;;;;5014475;28;20477;-81
2021/09/12 11:38:57;;;;;;;1999.90;999.90;;;;;;;;;;5015545;28;20454;-81
2021/09/12 11:41:25;;;;;;;1999.90;999.90;;;;;;;;;;5015455;28;20504;-81
2021/09/12 11:43:56;;;;;;;1999.90;999.90;;;;;;;;;;5015336;28;20509;-82
2021/09/12 11:46:24;;;;;;;1999.90;999.90;;;;;;;;;;4997532;28;20493;-82
2021/09/12 11:48:55;;;;;;;1999.90;999.90;;;;;;;;;;4996280;28;20856;-82
2021/09/12 11:51:32;;;;;;;1999.90;999.90;;;;;;;;;;4995434;28;20446;-82
2021/09/12 11:54:06;;;;;;;392.30;369.03;;;;;;;;;;5004691;28;20993;-82
2021/09/12 11:56:33;;;;;;;411.20;386.40;;;;;;;;;;5014086;28;20476;-82
2021/09/12 11:59:01;;;;;;;359.83;337.70;;;;;;;;;;5020982;28;20453;-83
2021/09/12 12:01:30;;;;;;;981.47;630.63;;;;;;;;;;5014586;28;20460;-83
2021/09/12 12:03:58;;;;;;;436.13;411.47;;;;;;;;;;5014415;28;20458;-82
2021/09/12 12:06:25;;;;;;;458.80;431.77;;;;;;;;;;5014833;28;20485;-83
2021/09/12 12:09:26;;;;;;;927.83;578.87;;;;;;;;;;5020251;28;20544;-83
2021/09/12 12:11:53;;;;;;;1446.80;772.50;;;;;;;;;;4992397;28;20912;-82
2021/09/12 12:14:22;;;;;;;498.30;469.07;;;;;;;;;;5015428;28;20442;-81
2021/09/12 12:16:50;;;;;;;401.13;377.03;;;;;;;;;;5013809;28;20470;-82
2021/09/12 12:19:18;;;;;;;1448.70;774.03;;;;;;;;;;5013242;28;20453;-83
2021/09/12 12:21:46;;;;;;;1439.17;765.43;;;;;;;;;;5015168;28;20448;-83
2021/09/12 12:24:15;;;;;;;997.23;644.40;;;;;;;;;;5015274;28;20445;-82
2021/09/12 12:26:47;;;;;;;1441.63;767.93;;;;;;;;;;5026339;28;20486;-82
2021/09/12 12:29:24;;;;;;;280.67;260.90;;;;;;;;;;5014315;28;20850;-84
2021/09/12 12:31:53;;;;;;;320.70;300.27;;;;;;;;;;5015539;28;21070;-83
2021/09/12 12:34:40;;;;;;;359.43;337.80;;;;;;;;;;5015797;28;20495;-81
2021/09/12 12:37:07;;;;;;;398.23;375.13;;;;;;;;;;5013403;28;20453;-82
2021/09/12 12:39:35;;;;;;;276.87;258.00;;;;;;;;;;5014908;28;20445;-83
2021/09/12 12:42:02;;;;;;;295.80;276.87;;;;;;;;;;5021451;28;20449;-84
2021/09/12 12:44:29;;;;;;;321.77;301.37;;;;;;;;;;5033565;28;20459;-83
2021/09/12 12:46:58;;;;;;;332.00;312.07;;;;;;;;;;5012599;28;20492;-81
2021/09/12 12:49:26;;;;;;;373.20;351.33;;;;;;;;;;5013110;28;20481;-82
2021/09/12 12:52:11;;;;;;;1432.97;759.67;;;;;;;;;;5002789;28;20457;-81
2021/09/12 12:54:39;;;;;;;519.53;490.37;;;;;;;;;;5013211;28;20454;-83
2021/09/12 12:57:10;;;;;;;434.63;410.30;;;;;;;;;;5013568;28;20453;-82
2021/09/12 12:59:37;;;;;;;1427.87;754.07;;;;;;;;;;5012724;28;20607;-83
2021/09/12 13:02:06;;;;;;;376.33;353.90;;;;;;;;;;5012758;28;20966;-81
2021/09/12 13:04:33;;;;;;;285.97;267.77;;;;;;;;;;5005067;28;20457;-82
2021/09/12 13:07:00;;;;;;;233.30;216.57;;;;;;;;;;5013817;28;20489;-82
2021/09/12 13:09:27;;;;;;;1999.90;999.90;;;;;;;;;;4996097;28;20466;-81
2021/09/12 13:11:54;;;;;;;311.93;291.53;;;;;;;;;;5004327;28;20456;-81
2021/09/12 13:14:21;;;;;;;383.50;360.30;;;;;;;;;;5015162;28;20457;-83
2021/09/12 13:16:49;;;;;;;258.40;240.97;;;;;;;;;;5013610;28;20978;-81
2021/09/12 13:19:17;;;;;;;348.63;328.17;;;;;;;;;;5013118;28;20545;-82
2021/09/12 13:21:44;;;;;;;1999.90;999.90;;;;;;;;;;5004715;28;20462;-83
2021/09/12 13:24:12;;;;;;;1999.90;999.90;;;;;;;;;;5014696;28;20974;-82
2021/09/12 13:26:39;;;;;;;1999.90;999.90;;;;;;;;;;5013017;28;20573;-83
2021/09/12 13:29:06;;;;;;;1999.90;999.90;;;;;;;;;;5013591;28;20450;-82
2021/09/12 13:31:33;;;;;;;1999.90;999.90;;;;;;;;;;5012901;28;20458;-82
2021/09/12 13:34:01;;;;;;;1999.90;999.90;;;;;;;;;;5008905;28;20458;-83
2021/09/12 13:36:30;;;;;;;1999.90;999.90;;;;;;;;;;5002930;28;20575;-82
2021/09/12 13:38:57;;;;;;;1999.90;999.90;;;;;;;;;;5014075;28;20835;-82
2021/09/12 13:41:24;;;;;;;1999.90;999.90;;;;;;;;;;5003472;28;20549;-84
2021/09/12 13:43:52;;;;;;;1999.90;999.90;;;;;;;;;;4994809;28;20545;-83
2021/09/12 13:46:19;;;;;;;1999.90;999.90;;;;;;;;;;4993794;28;20525;-82
2021/09/12 13:48:46;;;;;;;531.33;499.33;;;;;;;;;;4994193;28;21023;-81
2021/09/12 13:51:13;;;;;;;459.37;431.53;;;;;;;;;;4995059;28;20453;-82